Time,TemperatureF,DewpointF,PressureIn,WindDirection,WindDirectionDegrees,WindSpeedMPH,WindSpeedGustMPH,Humidity,HourlyPrecipIn,Conditions,Clouds,dailyrainin,SoftwareType,DateUTC
2013-11-10 00:23:00,48.0,39.0,29.93,WSW,253,4.0,9.0,70,0.00,,,0.00,,2013-11-10 05:23:00,
2013-11-10 00:54:00,47.0,38.0,29.94,WSW,250,4.0,8.0,71,0.00,,,0.00,,2013-11-10 05:54:00,
2013-11-10 01:22:00,47.0,38.0,29.94,West,267,5.0,10.0,72,0.00,,,0.00,,2013-11-10 06:22:00,
2013-11-10 01:52:00,47.0,37.0,29.95,West,261,7.0,13.0,68,0.00,,,0.00,,2013-11-10 06:52:00,
2013-11-10 02:12:00,47.0,36.0,29.94,WNW,294,9.0,23.0,65,0.00,,,0.00,,2013-11-10 07:12:00,
2013-11-10 02:22:00,47.0,35.0,29.95,West,279,6.0,22.0,64,0.00,,,0.00,,2013-11-10 07:22:00,
2013-11-10 02:43:00,47.0,34.0,29.96,West,279,12.0,22.0,60,0.00,,,0.00,,2013-11-10 07:43:00,
2013-11-10 02:52:00,47.0,34.0,29.96,West,274,8.0,17.0,60,0.00,,,0.00,,2013-11-10 07:52:00,
2013-11-10 03:22:00,46.0,34.0,29.96,West,263,10.0,16.0,62,0.00,,,0.00,,2013-11-10 08:22:00,
2013-11-10 03:42:00,45.0,33.0,29.96,West,277,9.0,13.0,63,0.00,,,0.00,,2013-11-10 08:42:00,
2013-11-10 03:52:00,45.0,31.0,29.96,WNW,299,13.0,23.0,58,0.00,,,0.00,,2013-11-10 08:52:00,
2013-11-10 04:22:00,46.0,31.0,29.97,WNW,292,12.0,20.0,55,0.00,,,0.00,,2013-11-10 09:22:00,
2013-11-10 04:42:00,46.0,31.0,29.97,NW,307,13.0,18.0,56,0.00,,,0.00,,2013-11-10 09:42:00,
2013-11-10 04:53:00,45.0,31.0,29.97,West,271,7.0,16.0,57,0.00,,,0.00,,2013-11-10 09:53:00,
2013-11-10 05:13:00,45.0,31.0,29.98,West,278,7.0,10.0,58,0.00,,,0.00,,2013-11-10 10:13:00,
2013-11-10 05:23:00,45.0,31.0,29.99,WNW,284,7.0,18.0,58,0.00,,,0.00,,2013-11-10 10:23:00,
2013-11-10 05:42:00,45.0,32.0,30.00,WSW,243,5.0,10.0,60,0.00,,,0.00,,2013-11-10 10:42:00,
2013-11-10 05:53:00,45.0,32.0,30.00,West,265,5.0,13.0,61,0.00,,,0.00,,2013-11-10 10:53:00,
2013-11-10 06:22:00,44.0,32.0,30.02,WSW,251,10.0,16.0,62,0.00,,,0.00,,2013-11-10 11:22:00,
2013-11-10 06:43:00,44.0,32.0,30.03,West,262,15.0,21.0,62,0.00,,,0.00,,2013-11-10 11:43:00,
2013-11-10 06:52:00,44.0,29.0,30.04,NW,310,14.0,21.0,55,0.00,,,0.00,,2013-11-10 11:52:00,
2013-11-10 07:22:00,43.0,27.0,30.06,WNW,291,13.0,21.0,52,0.00,,,0.00,,2013-11-10 12:22:00,
2013-11-10 07:42:00,43.0,26.0,30.06,WNW,293,11.0,25.0,51,0.00,,,0.00,,2013-11-10 12:42:00,
2013-11-10 07:52:00,43.0,27.0,30.07,WNW,290,7.0,14.0,53,0.00,,,0.00,,2013-11-10 12:52:00,
2013-11-10 08:11:00,43.0,27.0,30.08,West,265,8.0,14.0,52,0.00,,,0.00,,2013-11-10 13:11:00,
2013-11-10 08:22:00,43.0,27.0,30.09,West,269,8.0,17.0,53,0.00,,,0.00,,2013-11-10 13:22:00,
2013-11-10 08:52:00,43.0,28.0,30.11,WNW,288,7.0,14.0,54,0.00,,,0.00,,2013-11-10 13:52:00,
2013-11-10 09:21:00,43.0,28.0,30.12,WNW,282,10.0,15.0,56,0.00,,,0.00,,2013-11-10 14:21:00,
2013-11-10 09:52:00,43.0,29.0,30.14,WNW,303,9.0,16.0,57,0.00,,,0.00,,2013-11-10 14:52:00,
2013-11-10 10:22:00,43.0,28.0,30.15,WNW,297,14.0,21.0,56,0.00,,,0.00,,2013-11-10 15:22:00,
2013-11-10 10:43:00,43.0,29.0,30.16,West,278,10.0,17.0,58,0.00,,,0.00,,2013-11-10 15:43:00,
2013-11-10 10:53:00,44.0,30.0,30.16,WNW,294,11.0,19.0,57,0.00,,,0.00,,2013-11-10 15:53:00,
2013-11-10 11:23:00,44.0,29.0,30.19,NW,320,13.0,19.0,56,0.00,,,0.00,,2013-11-10 16:23:00,
2013-11-10 11:42:00,44.0,29.0,30.19,WNW,296,12.0,19.0,55,0.00,,,0.00,,2013-11-10 16:42:00,
2013-11-10 11:53:00,44.0,29.0,30.18,WNW,289,13.0,19.0,55,0.00,,,0.00,,2013-11-10 16:53:00,
2013-11-10 12:12:00,44.0,28.0,30.19,WNW,288,13.0,20.0,54,0.00,,,0.00,,2013-11-10 17:12:00,
2013-11-10 12:23:00,44.0,29.0,30.19,WSW,251,14.0,21.0,55,0.00,,,0.00,,2013-11-10 17:23:00,
2013-11-10 12:43:00,45.0,29.0,30.18,NW,306,14.0,24.0,54,0.00,,,0.00,,2013-11-10 17:43:00,
2013-11-10 12:52:00,46.0,31.0,30.19,West,281,11.0,22.0,55,0.00,,,0.00,,2013-11-10 17:52:00,
2013-11-10 13:13:00,46.0,30.0,30.19,West,271,15.0,23.0,53,0.00,,,0.00,,2013-11-10 18:13:00,
2013-11-10 13:24:00,46.0,29.0,30.19,West,264,14.0,24.0,52,0.00,,,0.00,,2013-11-10 18:24:00,
2013-11-10 13:42:00,46.0,29.0,30.19,West,278,15.0,21.0,51,0.00,,,0.00,,2013-11-10 18:42:00,
2013-11-10 13:52:00,46.0,30.0,30.20,WNW,282,12.0,23.0,53,0.00,,,3.05,,2013-11-10 18:52:00,
2013-11-10 14:22:00,46.0,30.0,30.20,NW,317,12.0,20.0,53,0.00,,,0.00,,2013-11-10 19:22:00,
2013-11-10 14:42:00,46.0,29.0,30.20,NW,317,11.0,19.0,51,0.00,,,0.00,,2013-11-10 19:42:00,
2013-11-10 14:52:00,46.0,30.0,30.20,West,274,9.0,15.0,54,0.00,,,0.00,,2013-11-10 19:52:00,
2013-11-10 15:22:00,47.0,29.0,30.21,WNW,285,14.0,20.0,50,0.00,,,0.00,,2013-11-10 20:22:00,
2013-11-10 15:42:00,47.0,27.0,30.22,WNW,288,11.0,20.0,46,0.00,,,0.00,,2013-11-10 20:42:00,
2013-11-10 15:53:00,47.0,29.0,30.22,NW,311,11.0,20.0,50,0.00,,,0.00,,2013-11-10 20:53:00,
2013-11-10 16:22:00,46.0,28.0,30.23,WNW,294,10.0,17.0,50,0.00,,,0.00,,2013-11-10 21:22:00,
2013-11-10 16:43:00,47.0,29.0,30.24,WNW,283,11.0,17.0,49,0.00,,,0.00,,2013-11-10 21:43:00,
2013-11-10 16:55:00,47.0,29.0,30.24,WNW,291,12.0,17.0,49,0.00,,,0.00,,2013-11-10 21:55:00,
2013-11-10 17:23:00,46.0,29.0,30.24,WSW,255,9.0,13.0,52,0.00,,,0.00,,2013-11-10 22:23:00,
2013-11-10 17:43:00,45.0,29.0,30.24,WNW,283,6.0,12.0,54,0.00,,,0.00,,2013-11-10 22:43:00,
2013-11-10 17:54:00,45.0,30.0,30.24,West,269,6.0,9.0,55,0.00,,,0.00,,2013-11-10 22:54:00,
2013-11-10 18:22:00,43.0,30.0,30.24,West,267,2.0,6.0,59,0.00,,,0.00,,2013-11-10 23:22:00,
2013-11-10 18:43:00,42.0,30.0,30.25,West,266,0.0,5.0,61,0.00,,,0.00,,2013-11-10 23:43:00,
2013-11-10 18:53:00,41.0,30.0,30.26,West,265,1.0,5.0,64,0.00,,,0.00,,2013-11-10 23:53:00,
2013-11-10 19:22:00,40.0,30.0,30.27,West,265,0.0,4.0,67,0.00,,,0.00,,2013-11-11 00:22:00,
2013-11-10 19:42:00,40.0,30.0,30.26,West,262,3.0,6.0,67,0.00,,,3.05,,2013-11-11 00:42:00,
2013-11-10 19:52:00,40.0,30.0,30.26,WSW,254,2.0,6.0,68,0.00,,,0.00,,2013-11-11 00:52:00,
2013-11-10 20:22:00,39.0,30.0,30.27,WSW,250,2.0,5.0,70,0.00,,,0.00,,2013-11-11 01:22:00,
2013-11-10 20:42:00,39.0,30.0,30.27,WSW,252,1.0,5.0,70,0.00,,,0.00,,2013-11-11 01:42:00,
2013-11-10 20:52:00,38.0,29.0,30.27,WSW,250,2.0,6.0,71,0.00,,,0.00,,2013-11-11 01:52:00,
2013-11-10 21:21:00,37.0,29.0,30.27,WSW,246,0.0,0.0,73,0.00,,,0.00,,2013-11-11 02:21:00,
2013-11-10 21:52:00,37.0,29.0,30.27,WSW,246,1.0,4.0,74,0.00,,,0.00,,2013-11-11 02:52:00,
2013-11-10 22:22:00,37.0,29.0,30.27,WSW,241,1.0,5.0,74,0.00,,,0.00,,2013-11-11 03:22:00,
2013-11-10 22:43:00,37.0,30.0,30.27,WSW,240,0.0,6.0,75,0.00,,,0.00,,2013-11-11 03:43:00,
2013-11-10 22:55:00,37.0,30.0,30.26,WSW,240,0.0,4.0,75,0.00,,,0.00,,2013-11-11 03:55:00,
2013-11-10 23:14:00,37.0,30.0,30.26,WSW,240,1.0,4.0,75,0.00,,,0.00,,2013-11-11 04:14:00,
2013-11-10 23:24:00,36.0,29.0,30.26,WSW,240,0.0,5.0,76,0.00,,,0.00,,2013-11-11 04:24:00,
2013-11-10 23:43:00,36.0,29.0,30.26,WSW,240,0.0,0.0,76,0.00,,,0.00,,2013-11-11 04:43:00,
2013-11-10 23:53:00,36.0,29.0,30.25,WSW,240,0.0,0.0,77,0.00,,,0.00,,2013-11-11 04:53:00,